sensor_id;sensor_type;location;lat;lon;timestamp;P1;durP1;ratioP1;P2;durP2;ratioP2
19739;SDS011;10027;51.066;13.768;2023-10-19T00:01:18;6.13;;;3.87;;
19739;SDS011;10027;51.066;13.768;2023-10-19T00:03:50;7.63;;;3.97;;
19739;SDS011;10027;51.066;13.768;2023-10-19T00:06:17;8.87;;;4.17;;
19739;SDS011;10027;51.066;13.768;2023-10-19T00:08:44;6.00;;;4.17;;
19739;SDS011;10027;51.066;13.768;2023-10-19T00:11:11;5.67;;;3.60;;
19739;SDS011;10027;51.066;13.768;2023-10-19T00:13:48;7.00;;;4.07;;
19739;SDS011;10027;51.066;13.768;2023-10-19T00:16:16;5.70;;;3.60;;
19739;SDS011;10027;51.066;13.768;2023-10-19T00:18:44;6.27;;;4.10;;
19739;SDS011;10027;51.066;13.768;2023-10-19T00:21:15;6.60;;;3.90;;
19739;SDS011;10027;51.066;13.768;2023-10-19T00:23:52;5.87;;;3.87;;
19739;SDS011;10027;51.066;13.768;2023-10-19T00:26:24;8.40;;;4.00;;
19739;SDS011;10027;51.066;13.768;2023-10-19T00:28:51;5.60;;;3.83;;
19739;SDS011;10027;51.066;13.768;2023-10-19T00:31:26;5.63;;;3.63;;
19739;SDS011;10027;51.066;13.768;2023-10-19T00:33:54;7.17;;;4.07;;
19739;SDS011;10027;51.066;13.768;2023-10-19T00:36:22;8.53;;;3.80;;
19739;SDS011;10027;51.066;13.768;2023-10-19T00:38:51;8.13;;;4.00;;
19739;SDS011;10027;51.066;13.768;2023-10-19T00:41:25;6.40;;;3.97;;
19739;SDS011;10027;51.066;13.768;2023-10-19T00:43:57;5.93;;;3.80;;
19739;SDS011;10027;51.066;13.768;2023-10-19T00:46:29;7.03;;;3.73;;
19739;SDS011;10027;51.066;13.768;2023-10-19T00:49:10;7.17;;;3.90;;
19739;SDS011;10027;51.066;13.768;2023-10-19T00:51:44;6.30;;;4.00;;
19739;SDS011;10027;51.066;13.768;2023-10-19T00:54:34;7.57;;;3.90;;
19739;SDS011;10027;51.066;13.768;2023-10-19T00:57:07;5.53;;;3.70;;
19739;SDS011;10027;51.066;13.768;2023-10-19T00:59:37;8.00;;;4.03;;
19739;SDS011;10027;51.066;13.768;2023-10-19T01:02:15;8.47;;;3.93;;
19739;SDS011;10027;51.066;13.768;2023-10-19T01:04:44;6.37;;;4.30;;
19739;SDS011;10027;51.066;13.768;2023-10-19T01:07:17;8.70;;;4.00;;
19739;SDS011;10027;51.066;13.768;2023-10-19T01:09:50;5.57;;;4.27;;
19739;SDS011;10027;51.066;13.768;2023-10-19T01:12:19;8.17;;;4.00;;
19739;SDS011;10027;51.066;13.768;2023-10-19T01:15:06;9.90;;;3.97;;
19739;SDS011;10027;51.066;13.768;2023-10-19T01:17:40;8.30;;;4.30;;
19739;SDS011;10027;51.066;13.768;2023-10-19T01:20:10;9.37;;;4.23;;
19739;SDS011;10027;51.066;13.768;2023-10-19T01:23:07;6.83;;;4.33;;
19739;SDS011;10027;51.066;13.768;2023-10-19T01:25:44;6.03;;;4.10;;
19739;SDS011;10027;51.066;13.768;2023-10-19T01:28:13;6.83;;;4.03;;
19739;SDS011;10027;51.066;13.768;2023-10-19T01:30:44;6.67;;;4.13;;
19739;SDS011;10027;51.066;13.768;2023-10-19T01:33:11;7.57;;;4.60;;
19739;SDS011;10027;51.066;13.768;2023-10-19T01:35:42;5.37;;;4.00;;
19739;SDS011;10027;51.066;13.768;2023-10-19T01:38:28;6.87;;;4.50;;
19739;SDS011;10027;51.066;13.768;2023-10-19T01:41:02;8.33;;;4.70;;
19739;SDS011;10027;51.066;13.768;2023-10-19T01:43:48;6.60;;;4.43;;
19739;SDS011;10027;51.066;13.768;2023-10-19T01:46:17;9.67;;;4.43;;
19739;SDS011;10027;51.066;13.768;2023-10-19T01:48:52;6.87;;;4.73;;
19739;SDS011;10027;51.066;13.768;2023-10-19T01:51:23;6.60;;;4.37;;
19739;SDS011;10027;51.066;13.768;2023-10-19T01:53:52;6.90;;;4.10;;
19739;SDS011;10027;51.066;13.768;2023-10-19T01:56:21;9.10;;;4.43;;
19739;SDS011;10027;51.066;13.768;2023-10-19T01:58:48;5.33;;;4.20;;
19739;SDS011;10027;51.066;13.768;2023-10-19T02:01:18;7.07;;;4.37;;
19739;SDS011;10027;51.066;13.768;2023-10-19T02:03:55;8.77;;;4.70;;
19739;SDS011;10027;51.066;13.768;2023-10-19T02:06:27;11.00;;;5.00;;
19739;SDS011;10027;51.066;13.768;2023-10-19T02:09:03;5.67;;;4.43;;
19739;SDS011;10027;51.066;13.768;2023-10-19T02:11:50;6.50;;;4.37;;
19739;SDS011;10027;51.066;13.768;2023-10-19T02:14:19;6.33;;;4.70;;
19739;SDS011;10027;51.066;13.768;2023-10-19T02:16:47;8.40;;;4.87;;
19739;SDS011;10027;51.066;13.768;2023-10-19T02:19:19;6.63;;;4.67;;
19739;SDS011;10027;51.066;13.768;2023-10-19T02:21:48;6.83;;;4.60;;
19739;SDS011;10027;51.066;13.768;2023-10-19T02:24:15;7.87;;;5.23;;
19739;SDS011;10027;51.066;13.768;2023-10-19T02:26:43;11.80;;;4.70;;
19739;SDS011;10027;51.066;13.768;2023-10-19T02:29:12;9.27;;;5.40;;
19739;SDS011;10027;51.066;13.768;2023-10-19T02:31:40;8.47;;;5.30;;
19739;SDS011;10027;51.066;13.768;2023-10-19T02:34:08;6.67;;;4.80;;
19739;SDS011;10027;51.066;13.768;2023-10-19T02:36:37;7.67;;;5.03;;
19739;SDS011;10027;51.066;13.768;2023-10-19T02:39:06;7.37;;;4.93;;
19739;SDS011;10027;51.066;13.768;2023-10-19T02:41:35;8.37;;;4.87;;
19739;SDS011;10027;51.066;13.768;2023-10-19T02:44:03;8.80;;;4.70;;
19739;SDS011;10027;51.066;13.768;2023-10-19T02:46:34;8.13;;;4.93;;
19739;SDS011;10027;51.066;13.768;2023-10-19T02:49:06;8.77;;;5.40;;
19739;SDS011;10027;51.066;13.768;2023-10-19T02:51:38;9.07;;;5.47;;
19739;SDS011;10027;51.066;13.768;2023-10-19T02:54:06;10.70;;;5.47;;
19739;SDS011;10027;51.066;13.768;2023-10-19T02:56:35;7.53;;;4.97;;
19739;SDS011;10027;51.066;13.768;2023-10-19T02:59:02;9.07;;;5.83;;
19739;SDS011;10027;51.066;13.768;2023-10-19T03:01:32;7.83;;;5.47;;
19739;SDS011;10027;51.066;13.768;2023-10-19T03:04:01;9.33;;;5.77;;
19739;SDS011;10027;51.066;13.768;2023-10-19T03:06:30;8.97;;;5.27;;
19739;SDS011;10027;51.066;13.768;2023-10-19T03:08:59;10.73;;;6.10;;
19739;SDS011;10027;51.066;13.768;2023-10-19T03:11:48;11.20;;;5.77;;
19739;SDS011;10027;51.066;13.768;2023-10-19T03:14:19;7.63;;;5.40;;
19739;SDS011;10027;51.066;13.768;2023-10-19T03:16:46;9.73;;;6.03;;
19739;SDS011;10027;51.066;13.768;2023-10-19T03:19:14;9.27;;;5.70;;
19739;SDS011;10027;51.066;13.768;2023-10-19T03:21:41;9.37;;;6.37;;
19739;SDS011;10027;51.066;13.768;2023-10-19T03:24:15;10.93;;;5.97;;
19739;SDS011;10027;51.066;13.768;2023-10-19T03:27:02;8.03;;;5.77;;
19739;SDS011;10027;51.066;13.768;2023-10-19T03:29:39;12.23;;;6.30;;
19739;SDS011;10027;51.066;13.768;2023-10-19T03:32:06;8.57;;;5.80;;
19739;SDS011;10027;51.066;13.768;2023-10-19T03:34:34;12.27;;;6.37;;
19739;SDS011;10027;51.066;13.768;2023-10-19T03:37:05;10.47;;;6.03;;
19739;SDS011;10027;51.066;13.768;2023-10-19T03:39:33;10.77;;;6.43;;
19739;SDS011;10027;51.066;13.768;2023-10-19T03:42:04;11.43;;;6.37;;
19739;SDS011;10027;51.066;13.768;2023-10-19T03:44:32;9.50;;;6.30;;
19739;SDS011;10027;51.066;13.768;2023-10-19T03:47:16;11.87;;;6.60;;
19739;SDS011;10027;51.066;13.768;2023-10-19T03:49:47;10.30;;;6.53;;
19739;SDS011;10027;51.066;13.768;2023-10-19T03:52:17;13.80;;;6.60;;
19739;SDS011;10027;51.066;13.768;2023-10-19T03:54:45;9.70;;;6.30;;
19739;SDS011;10027;51.066;13.768;2023-10-19T03:57:14;12.20;;;6.30;;
19739;SDS011;10027;51.066;13.768;2023-10-19T03:59:46;11.17;;;7.20;;
19739;SDS011;10027;51.066;13.768;2023-10-19T04:02:16;9.70;;;6.53;;
19739;SDS011;10027;51.066;13.768;2023-10-19T04:04:48;10.30;;;6.93;;
19739;SDS011;10027;51.066;13.768;2023-10-19T04:07:15;10.73;;;6.97;;
19739;SDS011;10027;51.066;13.768;2023-10-19T04:09:55;10.23;;;6.80;;
19739;SDS011;10027;51.066;13.768;2023-10-19T04:12:39;10.90;;;6.77;;
19739;SDS011;10027;51.066;13.768;2023-10-19T04:15:10;10.07;;;7.23;;
19739;SDS011;10027;51.066;13.768;2023-10-19T04:17:44;11.70;;;6.70;;
19739;SDS011;10027;51.066;13.768;2023-10-19T04:20:12;13.87;;;7.73;;
19739;SDS011;10027;51.066;13.768;2023-10-19T04:22:43;13.13;;;7.10;;
19739;SDS011;10027;51.066;13.768;2023-10-19T04:25:11;11.17;;;7.67;;
19739;SDS011;10027;51.066;13.768;2023-10-19T04:27:39;12.33;;;7.40;;
19739;SDS011;10027;51.066;13.768;2023-10-19T04:30:12;13.57;;;8.13;;
19739;SDS011;10027;51.066;13.768;2023-10-19T04:32:45;12.80;;;8.20;;
19739;SDS011;10027;51.066;13.768;2023-10-19T04:35:13;15.30;;;8.13;;
19739;SDS011;10027;51.066;13.768;2023-10-19T04:37:57;16.43;;;8.67;;
19739;SDS011;10027;51.066;13.768;2023-10-19T04:40:24;16.47;;;9.27;;
19739;SDS011;10027;51.066;13.768;2023-10-19T04:42:52;14.87;;;9.27;;
19739;SDS011;10027;51.066;13.768;2023-10-19T04:45:20;17.87;;;10.00;;
19739;SDS011;10027;51.066;13.768;2023-10-19T04:47:51;15.43;;;9.10;;
19739;SDS011;10027;51.066;13.768;2023-10-19T04:50:19;18.13;;;10.17;;
19739;SDS011;10027;51.066;13.768;2023-10-19T04:52:46;13.93;;;9.00;;
19739;SDS011;10027;51.066;13.768;2023-10-19T04:55:14;18.00;;;9.87;;
19739;SDS011;10027;51.066;13.768;2023-10-19T04:57:41;15.63;;;9.87;;
19739;SDS011;10027;51.066;13.768;2023-10-19T05:00:08;17.20;;;10.30;;
19739;SDS011;10027;51.066;13.768;2023-10-19T05:02:39;18.83;;;9.70;;
19739;SDS011;10027;51.066;13.768;2023-10-19T05:05:07;16.83;;;9.63;;
19739;SDS011;10027;51.066;13.768;2023-10-19T05:07:35;17.80;;;9.47;;
19739;SDS011;10027;51.066;13.768;2023-10-19T05:10:02;16.37;;;9.47;;
19739;SDS011;10027;51.066;13.768;2023-10-19T05:12:31;18.80;;;10.13;;
19739;SDS011;10027;51.066;13.768;2023-10-19T05:14:59;24.67;;;10.60;;
19739;SDS011;10027;51.066;13.768;2023-10-19T05:17:26;19.80;;;9.97;;
19739;SDS011;10027;51.066;13.768;2023-10-19T05:19:54;21.50;;;10.53;;
19739;SDS011;10027;51.066;13.768;2023-10-19T05:22:22;19.13;;;10.50;;
19739;SDS011;10027;51.066;13.768;2023-10-19T05:24:51;19.07;;;10.00;;
19739;SDS011;10027;51.066;13.768;2023-10-19T05:27:18;19.17;;;10.87;;
19739;SDS011;10027;51.066;13.768;2023-10-19T05:29:46;20.20;;;10.70;;
19739;SDS011;10027;51.066;13.768;2023-10-19T05:32:13;20.80;;;11.23;;
19739;SDS011;10027;51.066;13.768;2023-10-19T05:34:41;19.57;;;10.73;;
19739;SDS011;10027;51.066;13.768;2023-10-19T05:37:08;26.77;;;11.73;;
19739;SDS011;10027;51.066;13.768;2023-10-19T05:39:36;23.60;;;11.43;;
19739;SDS011;10027;51.066;13.768;2023-10-19T05:42:04;20.67;;;11.57;;
19739;SDS011;10027;51.066;13.768;2023-10-19T05:44:32;22.33;;;10.10;;
19739;SDS011;10027;51.066;13.768;2023-10-19T05:46:59;21.53;;;11.00;;
19739;SDS011;10027;51.066;13.768;2023-10-19T05:49:27;24.33;;;11.33;;
19739;SDS011;10027;51.066;13.768;2023-10-19T05:51:57;23.07;;;11.93;;
19739;SDS011;10027;51.066;13.768;2023-10-19T05:54:25;19.87;;;10.87;;
19739;SDS011;10027;51.066;13.768;2023-10-19T05:56:53;23.60;;;11.47;;
19739;SDS011;10027;51.066;13.768;2023-10-19T05:59:20;19.40;;;11.40;;
19739;SDS011;10027;51.066;13.768;2023-10-19T06:01:49;21.97;;;11.67;;
19739;SDS011;10027;51.066;13.768;2023-10-19T06:04:24;21.50;;;11.37;;
19739;SDS011;10027;51.066;13.768;2023-10-19T06:06:51;22.73;;;11.77;;
19739;SDS011;10027;51.066;13.768;2023-10-19T06:09:19;23.10;;;11.77;;
19739;SDS011;10027;51.066;13.768;2023-10-19T06:11:55;23.53;;;11.27;;
19739;SDS011;10027;51.066;13.768;2023-10-19T06:14:23;20.50;;;12.13;;
19739;SDS011;10027;51.066;13.768;2023-10-19T06:16:50;24.67;;;12.50;;
19739;SDS011;10027;51.066;13.768;2023-10-19T06:19:19;20.87;;;12.40;;
19739;SDS011;10027;51.066;13.768;2023-10-19T06:21:46;23.97;;;12.27;;
19739;SDS011;10027;51.066;13.768;2023-10-19T06:24:16;23.77;;;12.97;;
19739;SDS011;10027;51.066;13.768;2023-10-19T06:26:45;25.87;;;12.77;;
19739;SDS011;10027;51.066;13.768;2023-10-19T06:29:13;23.97;;;12.53;;
19739;SDS011;10027;51.066;13.768;2023-10-19T06:31:40;24.07;;;12.70;;
19739;SDS011;10027;51.066;13.768;2023-10-19T06:34:07;25.33;;;12.37;;
19739;SDS011;10027;51.066;13.768;2023-10-19T06:36:37;27.83;;;13.07;;
19739;SDS011;10027;51.066;13.768;2023-10-19T06:39:04;27.70;;;12.63;;
19739;SDS011;10027;51.066;13.768;2023-10-19T06:41:32;20.83;;;12.00;;
19739;SDS011;10027;51.066;13.768;2023-10-19T06:44:00;26.90;;;13.30;;
19739;SDS011;10027;51.066;13.768;2023-10-19T06:46:28;23.40;;;12.67;;
19739;SDS011;10027;51.066;13.768;2023-10-19T06:48:55;25.20;;;13.40;;
19739;SDS011;10027;51.066;13.768;2023-10-19T06:51:26;27.37;;;13.10;;
19739;SDS011;10027;51.066;13.768;2023-10-19T06:53:53;24.47;;;13.07;;
19739;SDS011;10027;51.066;13.768;2023-10-19T06:56:21;28.17;;;13.83;;
19739;SDS011;10027;51.066;13.768;2023-10-19T06:58:48;24.63;;;13.20;;
19739;SDS011;10027;51.066;13.768;2023-10-19T07:01:15;23.17;;;12.87;;
19739;SDS011;10027;51.066;13.768;2023-10-19T07:03:44;21.87;;;12.53;;
19739;SDS011;10027;51.066;13.768;2023-10-19T07:06:11;26.40;;;13.57;;
19739;SDS011;10027;51.066;13.768;2023-10-19T07:08:40;25.97;;;12.97;;
19739;SDS011;10027;51.066;13.768;2023-10-19T07:11:08;20.80;;;12.53;;
19739;SDS011;10027;51.066;13.768;2023-10-19T07:13:35;26.27;;;13.43;;
19739;SDS011;10027;51.066;13.768;2023-10-19T07:16:03;26.60;;;13.57;;
19739;SDS011;10027;51.066;13.768;2023-10-19T07:18:30;30.10;;;13.60;;
19739;SDS011;10027;51.066;13.768;2023-10-19T07:20:57;24.80;;;13.37;;
19739;SDS011;10027;51.066;13.768;2023-10-19T07:23:32;25.73;;;12.90;;
19739;SDS011;10027;51.066;13.768;2023-10-19T07:25:59;23.43;;;12.47;;
19739;SDS011;10027;51.066;13.768;2023-10-19T07:28:26;26.90;;;13.57;;
19739;SDS011;10027;51.066;13.768;2023-10-19T07:30:54;24.23;;;12.93;;
19739;SDS011;10027;51.066;13.768;2023-10-19T07:33:22;27.73;;;13.10;;
19739;SDS011;10027;51.066;13.768;2023-10-19T07:35:50;24.33;;;13.17;;
19739;SDS011;10027;51.066;13.768;2023-10-19T07:38:26;24.63;;;13.20;;
19739;SDS011;10027;51.066;13.768;2023-10-19T07:40:55;23.87;;;13.13;;
19739;SDS011;10027;51.066;13.768;2023-10-19T07:43:22;26.83;;;13.37;;
19739;SDS011;10027;51.066;13.768;2023-10-19T07:45:52;27.70;;;13.97;;
19739;SDS011;10027;51.066;13.768;2023-10-19T07:48:22;26.30;;;13.67;;
19739;SDS011;10027;51.066;13.768;2023-10-19T07:50:51;20.67;;;12.80;;
19739;SDS011;10027;51.066;13.768;2023-10-19T07:53:19;25.70;;;12.67;;
19739;SDS011;10027;51.066;13.768;2023-10-19T07:55:47;23.40;;;12.83;;
19739;SDS011;10027;51.066;13.768;2023-10-19T07:58:15;23.10;;;12.63;;
19739;SDS011;10027;51.066;13.768;2023-10-19T08:00:42;27.23;;;12.77;;
19739;SDS011;10027;51.066;13.768;2023-10-19T08:03:12;23.50;;;12.93;;
19739;SDS011;10027;51.066;13.768;2023-10-19T08:05:42;27.30;;;13.37;;
19739;SDS011;10027;51.066;13.768;2023-10-19T08:08:09;21.67;;;12.93;;
19739;SDS011;10027;51.066;13.768;2023-10-19T08:10:38;24.77;;;12.83;;
19739;SDS011;10027;51.066;13.768;2023-10-19T08:13:06;27.37;;;13.13;;
19739;SDS011;10027;51.066;13.768;2023-10-19T08:15:33;29.50;;;13.70;;
19739;SDS011;10027;51.066;13.768;2023-10-19T08:18:00;24.77;;;13.17;;
19739;SDS011;10027;51.066;13.768;2023-10-19T08:20:28;22.63;;;12.57;;
19739;SDS011;10027;51.066;13.768;2023-10-19T08:22:59;25.57;;;13.53;;
19739;SDS011;10027;51.066;13.768;2023-10-19T08:25:28;24.03;;;12.57;;
19739;SDS011;10027;51.066;13.768;2023-10-19T08:27:59;21.27;;;12.50;;
19739;SDS011;10027;51.066;13.768;2023-10-19T08:30:27;24.43;;;12.83;;
19739;SDS011;10027;51.066;13.768;2023-10-19T08:32:55;24.83;;;12.57;;
19739;SDS011;10027;51.066;13.768;2023-10-19T08:35:24;25.50;;;13.07;;
19739;SDS011;10027;51.066;13.768;2023-10-19T08:37:53;21.70;;;13.30;;
19739;SDS011;10027;51.066;13.768;2023-10-19T08:40:20;25.07;;;12.73;;
19739;SDS011;10027;51.066;13.768;2023-10-19T08:42:50;26.37;;;13.20;;
19739;SDS011;10027;51.066;13.768;2023-10-19T08:45:17;19.80;;;12.13;;
19739;SDS011;10027;51.066;13.768;2023-10-19T08:50:13;20.40;;;12.27;;
19739;SDS011;10027;51.066;13.768;2023-10-19T08:52:43;23.60;;;12.80;;
19739;SDS011;10027;51.066;13.768;2023-10-19T08:55:11;23.00;;;11.27;;
19739;SDS011;10027;51.066;13.768;2023-10-19T08:57:39;18.40;;;11.13;;
19739;SDS011;10027;51.066;13.768;2023-10-19T09:00:07;19.93;;;11.30;;
19739;SDS011;10027;51.066;13.768;2023-10-19T09:02:34;21.00;;;11.47;;
19739;SDS011;10027;51.066;13.768;2023-10-19T09:05:08;16.00;;;10.93;;
19739;SDS011;10027;51.066;13.768;2023-10-19T09:07:35;19.23;;;10.80;;
19739;SDS011;10027;51.066;13.768;2023-10-19T09:10:06;15.47;;;10.73;;
19739;SDS011;10027;51.066;13.768;2023-10-19T09:12:39;15.70;;;10.23;;
19739;SDS011;10027;51.066;13.768;2023-10-19T09:15:10;20.73;;;10.43;;
19739;SDS011;10027;51.066;13.768;2023-10-19T09:17:47;17.70;;;9.90;;
19739;SDS011;10027;51.066;13.768;2023-10-19T09:20:15;16.00;;;10.07;;
19739;SDS011;10027;51.066;13.768;2023-10-19T09:22:54;16.63;;;9.90;;
19739;SDS011;10027;51.066;13.768;2023-10-19T09:25:23;13.83;;;8.93;;
19739;SDS011;10027;51.066;13.768;2023-10-19T09:27:50;16.17;;;10.27;;
19739;SDS011;10027;51.066;13.768;2023-10-19T09:30:18;15.30;;;9.73;;
19739;SDS011;10027;51.066;13.768;2023-10-19T09:32:47;12.87;;;9.33;;
19739;SDS011;10027;51.066;13.768;2023-10-19T09:35:15;13.93;;;9.43;;
19739;SDS011;10027;51.066;13.768;2023-10-19T09:37:42;12.93;;;9.00;;
19739;SDS011;10027;51.066;13.768;2023-10-19T09:40:10;13.30;;;8.87;;
19739;SDS011;10027;51.066;13.768;2023-10-19T09:42:40;12.97;;;8.67;;
19739;SDS011;10027;51.066;13.768;2023-10-19T09:45:12;11.30;;;8.60;;
19739;SDS011;10027;51.066;13.768;2023-10-19T09:47:43;12.53;;;9.00;;
19739;SDS011;10027;51.066;13.768;2023-10-19T09:50:14;13.13;;;9.30;;
19739;SDS011;10027;51.066;13.768;2023-10-19T09:52:41;12.23;;;9.90;;
19739;SDS011;10027;51.066;13.768;2023-10-19T09:57:46;12.97;;;9.17;;
19739;SDS011;10027;51.066;13.768;2023-10-19T10:00:15;13.57;;;9.37;;
19739;SDS011;10027;51.066;13.768;2023-10-19T10:02:50;12.00;;;8.80;;
19739;SDS011;10027;51.066;13.768;2023-10-19T10:10:46;13.37;;;9.70;;
19739;SDS011;10027;51.066;13.768;2023-10-19T10:15:53;13.57;;;9.70;;
19739;SDS011;10027;51.066;13.768;2023-10-19T10:18:23;14.27;;;10.50;;
19739;SDS011;10027;51.066;13.768;2023-10-19T10:21:04;16.80;;;10.37;;
19739;SDS011;10027;51.066;13.768;2023-10-19T10:23:32;14.53;;;10.27;;
19739;SDS011;10027;51.066;13.768;2023-10-19T10:26:00;14.10;;;9.67;;
19739;SDS011;10027;51.066;13.768;2023-10-19T10:28:30;14.30;;;10.20;;
19739;SDS011;10027;51.066;13.768;2023-10-19T10:33:55;16.43;;;10.47;;
19739;SDS011;10027;51.066;13.768;2023-10-19T10:36:22;15.77;;;10.30;;
19739;SDS011;10027;51.066;13.768;2023-10-19T10:38:50;14.97;;;10.63;;
19739;SDS011;10027;51.066;13.768;2023-10-19T10:41:24;16.10;;;10.63;;
19739;SDS011;10027;51.066;13.768;2023-10-19T10:43:55;15.07;;;10.83;;
19739;SDS011;10027;51.066;13.768;2023-10-19T10:46:23;15.77;;;11.00;;
19739;SDS011;10027;51.066;13.768;2023-10-19T10:48:50;16.90;;;10.93;;
19739;SDS011;10027;51.066;13.768;2023-10-19T10:51:25;16.93;;;11.67;;
19739;SDS011;10027;51.066;13.768;2023-10-19T10:53:55;16.80;;;11.57;;
19739;SDS011;10027;51.066;13.768;2023-10-19T10:56:22;16.17;;;10.93;;
19739;SDS011;10027;51.066;13.768;2023-10-19T10:58:50;17.10;;;11.10;;
19739;SDS011;10027;51.066;13.768;2023-10-19T11:01:32;16.27;;;11.63;;
19739;SDS011;10027;51.066;13.768;2023-10-19T11:04:09;15.47;;;10.83;;
19739;SDS011;10027;51.066;13.768;2023-10-19T11:06:53;19.20;;;12.50;;
19739;SDS011;10027;51.066;13.768;2023-10-19T11:09:23;18.90;;;11.97;;
19739;SDS011;10027;51.066;13.768;2023-10-19T11:11:51;20.77;;;11.93;;
19739;SDS011;10027;51.066;13.768;2023-10-19T11:14:21;19.37;;;12.20;;
19739;SDS011;10027;51.066;13.768;2023-10-19T11:16:52;20.30;;;11.90;;
19739;SDS011;10027;51.066;13.768;2023-10-19T11:19:19;19.43;;;12.93;;
19739;SDS011;10027;51.066;13.768;2023-10-19T11:21:51;18.30;;;12.60;;
19739;SDS011;10027;51.066;13.768;2023-10-19T11:24:24;17.30;;;12.23;;
19739;SDS011;10027;51.066;13.768;2023-10-19T11:26:52;20.47;;;13.13;;
19739;SDS011;10027;51.066;13.768;2023-10-19T11:29:21;19.70;;;12.83;;
19739;SDS011;10027;51.066;13.768;2023-10-19T11:31:58;20.93;;;12.70;;
19739;SDS011;10027;51.066;13.768;2023-10-19T11:34:27;17.40;;;12.27;;
19739;SDS011;10027;51.066;13.768;2023-10-19T11:36:58;19.37;;;12.20;;
19739;SDS011;10027;51.066;13.768;2023-10-19T11:39:26;19.33;;;12.47;;
19739;SDS011;10027;51.066;13.768;2023-10-19T11:41:55;21.37;;;12.73;;
19739;SDS011;10027;51.066;13.768;2023-10-19T11:44:22;19.87;;;12.40;;
19739;SDS011;10027;51.066;13.768;2023-10-19T11:46:49;20.97;;;13.30;;
19739;SDS011;10027;51.066;13.768;2023-10-19T11:49:16;18.60;;;12.57;;
19739;SDS011;10027;51.066;13.768;2023-10-19T11:51:44;19.03;;;12.30;;
19739;SDS011;10027;51.066;13.768;2023-10-19T11:54:11;20.57;;;12.90;;
19739;SDS011;10027;51.066;13.768;2023-10-19T11:56:38;20.00;;;12.77;;
19739;SDS011;10027;51.066;13.768;2023-10-19T11:59:05;16.70;;;11.93;;
19739;SDS011;10027;51.066;13.768;2023-10-19T12:01:33;17.80;;;11.80;;
19739;SDS011;10027;51.066;13.768;2023-10-19T12:04:01;19.30;;;12.70;;
19739;SDS011;10027;51.066;13.768;2023-10-19T12:06:28;17.17;;;12.17;;
19739;SDS011;10027;51.066;13.768;2023-10-19T12:08:55;17.97;;;12.60;;
19739;SDS011;10027;51.066;13.768;2023-10-19T12:11:25;19.77;;;12.90;;
19739;SDS011;10027;51.066;13.768;2023-10-19T12:13:52;20.03;;;13.30;;
19739;SDS011;10027;51.066;13.768;2023-10-19T12:16:20;19.03;;;12.83;;
19739;SDS011;10027;51.066;13.768;2023-10-19T12:18:50;18.53;;;12.77;;
19739;SDS011;10027;51.066;13.768;2023-10-19T12:21:17;18.27;;;12.90;;
19739;SDS011;10027;51.066;13.768;2023-10-19T12:23:54;21.03;;;13.97;;
19739;SDS011;10027;51.066;13.768;2023-10-19T12:26:23;23.83;;;13.43;;
19739;SDS011;10027;51.066;13.768;2023-10-19T12:28:51;20.70;;;12.97;;
19739;SDS011;10027;51.066;13.768;2023-10-19T12:31:18;19.37;;;12.60;;
19739;SDS011;10027;51.066;13.768;2023-10-19T12:33:46;16.50;;;12.37;;
19739;SDS011;10027;51.066;13.768;2023-10-19T12:36:13;18.80;;;12.50;;
19739;SDS011;10027;51.066;13.768;2023-10-19T12:38:50;17.40;;;12.60;;
19739;SDS011;10027;51.066;13.768;2023-10-19T12:41:18;19.43;;;12.40;;
19739;SDS011;10027;51.066;13.768;2023-10-19T12:43:46;18.57;;;12.57;;
19739;SDS011;10027;51.066;13.768;2023-10-19T12:46:13;19.93;;;12.80;;
19739;SDS011;10027;51.066;13.768;2023-10-19T12:48:42;18.63;;;13.27;;
19739;SDS011;10027;51.066;13.768;2023-10-19T12:51:10;23.00;;;13.97;;
19739;SDS011;10027;51.066;13.768;2023-10-19T12:53:42;22.63;;;13.50;;
19739;SDS011;10027;51.066;13.768;2023-10-19T12:56:12;17.53;;;12.53;;
19739;SDS011;10027;51.066;13.768;2023-10-19T12:58:39;19.57;;;13.67;;
19739;SDS011;10027;51.066;13.768;2023-10-19T13:01:07;20.77;;;13.27;;
19739;SDS011;10027;51.066;13.768;2023-10-19T13:03:45;21.23;;;13.73;;
19739;SDS011;10027;51.066;13.768;2023-10-19T13:06:13;20.43;;;13.20;;
19739;SDS011;10027;51.066;13.768;2023-10-19T13:08:41;21.30;;;13.80;;
19739;SDS011;10027;51.066;13.768;2023-10-19T13:11:08;19.30;;;13.17;;
19739;SDS011;10027;51.066;13.768;2023-10-19T13:13:45;21.93;;;13.97;;
19739;SDS011;10027;51.066;13.768;2023-10-19T13:16:14;17.67;;;12.93;;
19739;SDS011;10027;51.066;13.768;2023-10-19T13:18:41;21.97;;;13.97;;
19739;SDS011;10027;51.066;13.768;2023-10-19T13:21:10;19.40;;;13.10;;
19739;SDS011;10027;51.066;13.768;2023-10-19T13:23:42;21.13;;;14.13;;
19739;SDS011;10027;51.066;13.768;2023-10-19T13:26:10;18.87;;;12.67;;
19739;SDS011;10027;51.066;13.768;2023-10-19T13:28:41;20.70;;;14.17;;
19739;SDS011;10027;51.066;13.768;2023-10-19T13:31:09;20.10;;;13.70;;
19739;SDS011;10027;51.066;13.768;2023-10-19T13:33:36;18.33;;;12.87;;
19739;SDS011;10027;51.066;13.768;2023-10-19T13:36:03;19.37;;;13.33;;
19739;SDS011;10027;51.066;13.768;2023-10-19T13:38:32;22.33;;;13.60;;
19739;SDS011;10027;51.066;13.768;2023-10-19T13:41:02;20.83;;;13.47;;
19739;SDS011;10027;51.066;13.768;2023-10-19T13:43:33;21.60;;;13.60;;
19739;SDS011;10027;51.066;13.768;2023-10-19T13:46:04;18.17;;;13.37;;
19739;SDS011;10027;51.066;13.768;2023-10-19T13:48:31;19.57;;;13.57;;
19739;SDS011;10027;51.066;13.768;2023-10-19T13:50:59;21.97;;;14.17;;
19739;SDS011;10027;51.066;13.768;2023-10-19T13:53:40;21.23;;;13.20;;
19739;SDS011;10027;51.066;13.768;2023-10-19T13:56:10;20.97;;;13.47;;
19739;SDS011;10027;51.066;13.768;2023-10-19T13:58:38;18.70;;;13.47;;
19739;SDS011;10027;51.066;13.768;2023-10-19T14:01:08;19.83;;;13.90;;
19739;SDS011;10027;51.066;13.768;2023-10-19T14:03:37;17.87;;;12.97;;
19739;SDS011;10027;51.066;13.768;2023-10-19T14:06:05;20.60;;;13.17;;
19739;SDS011;10027;51.066;13.768;2023-10-19T14:08:32;19.00;;;13.17;;
19739;SDS011;10027;51.066;13.768;2023-10-19T14:11:03;18.50;;;12.97;;
19739;SDS011;10027;51.066;13.768;2023-10-19T14:13:31;21.03;;;14.07;;
19739;SDS011;10027;51.066;13.768;2023-10-19T14:15:58;20.37;;;13.83;;
19739;SDS011;10027;51.066;13.768;2023-10-19T14:18:25;24.37;;;13.90;;
19739;SDS011;10027;51.066;13.768;2023-10-19T14:20:54;19.50;;;13.63;;
19739;SDS011;10027;51.066;13.768;2023-10-19T14:23:21;22.07;;;14.43;;
19739;SDS011;10027;51.066;13.768;2023-10-19T14:25:50;22.33;;;13.53;;
19739;SDS011;10027;51.066;13.768;2023-10-19T14:28:18;20.80;;;13.77;;
19739;SDS011;10027;51.066;13.768;2023-10-19T14:30:45;21.70;;;13.93;;
19739;SDS011;10027;51.066;13.768;2023-10-19T14:33:12;22.43;;;15.10;;
19739;SDS011;10027;51.066;13.768;2023-10-19T14:35:39;20.07;;;14.07;;
19739;SDS011;10027;51.066;13.768;2023-10-19T14:38:08;24.10;;;14.53;;
19739;SDS011;10027;51.066;13.768;2023-10-19T14:40:38;20.87;;;14.27;;
19739;SDS011;10027;51.066;13.768;2023-10-19T14:43:10;21.00;;;14.17;;
19739;SDS011;10027;51.066;13.768;2023-10-19T14:45:39;23.00;;;14.90;;
19739;SDS011;10027;51.066;13.768;2023-10-19T14:48:07;24.07;;;15.47;;